createdAt,value
2018-05-10T00:00:07.261Z,13.73
2018-05-10T00:01:07.450Z,13.72
2018-05-10T00:02:07.638Z,13.71
2018-05-10T00:03:07.826Z,13.73
2018-05-10T00:04:08.017Z,13.72
2018-05-10T00:05:08.208Z,13.73
2018-05-10T00:06:08.395Z,13.57
2018-05-10T00:07:08.588Z,13.68
2018-05-10T00:08:08.769Z,13.63
2018-05-10T00:09:08.957Z,13.78
2018-05-10T00:10:09.147Z,13.68
2018-05-10T00:11:09.335Z,13.82
2018-05-10T00:12:09.523Z,13.72
2018-05-10T00:13:09.713Z,13.73
2018-05-10T00:14:09.904Z,13.67
2018-05-10T00:15:10.091Z,13.75
2018-05-10T00:16:10.279Z,13.65
2018-05-10T00:17:10.464Z,13.63
2018-05-10T00:18:10.654Z,13.47
2018-05-10T00:19:10.842Z,13.57
2018-05-10T00:20:11.030Z,13.53
2018-05-10T00:21:11.219Z,13.49
2018-05-10T00:22:11.408Z,13.49
2018-05-10T00:23:11.598Z,13.55
2018-05-10T00:24:11.816Z,13.58
2018-05-10T00:25:11.976Z,13.61
2018-05-10T00:26:12.163Z,13.64
2018-05-10T00:27:12.355Z,13.63
2018-05-10T00:28:12.544Z,13.60
2018-05-10T00:29:12.729Z,13.57
2018-05-10T00:30:12.917Z,13.43
2018-05-10T00:31:13.105Z,13.39
2018-05-10T00:32:13.294Z,13.38
2018-05-10T00:33:13.482Z,13.39
2018-05-10T00:34:13.669Z,13.36
2018-05-10T00:35:13.860Z,13.35
2018-05-10T00:36:14.048Z,13.38
2018-05-10T00:37:14.235Z,13.39
2018-05-10T00:38:14.424Z,13.39
2018-05-10T00:39:14.614Z,13.29
2018-05-10T00:40:14.801Z,13.26
2018-05-10T00:41:14.990Z,13.23
2018-05-10T00:42:15.178Z,13.24
2018-05-10T00:43:15.371Z,13.23
2018-05-10T00:44:15.554Z,13.19
2018-05-10T00:45:15.744Z,13.36
2018-05-10T00:46:15.936Z,13.29
2018-05-10T00:47:16.123Z,13.29
2018-05-10T00:48:16.307Z,13.26
2018-05-10T00:49:16.495Z,13.23
2018-05-10T00:50:16.682Z,13.23
2018-05-10T00:51:16.871Z,13.24
2018-05-10T00:52:17.060Z,13.09
2018-05-10T00:53:17.250Z,13.04
2018-05-10T00:54:17.436Z,12.90
2018-05-10T00:55:17.624Z,13.08
2018-05-10T00:56:17.813Z,13.05
2018-05-10T00:57:18.000Z,13.05
2018-05-10T00:58:18.187Z,13.08
2018-05-10T00:59:18.376Z,13.08
2018-05-10T01:00:18.563Z,13.06
2018-05-10T01:01:18.752Z,13.19
2018-05-10T01:02:18.940Z,13.05
2018-05-10T01:03:19.128Z,13.05
2018-05-10T01:04:19.314Z,13.13
2018-05-10T01:05:19.505Z,13.05
2018-05-10T01:06:19.695Z,13.11
2018-05-10T01:07:19.878Z,13.06
2018-05-10T01:08:20.066Z,13.13
2018-05-10T01:09:20.256Z,13.05
2018-05-10T01:10:20.442Z,12.93
2018-05-10T01:11:20.630Z,12.95
2018-05-10T01:12:20.818Z,12.86
2018-05-10T01:13:21.006Z,12.66
2018-05-10T01:14:21.194Z,12.54
2018-05-10T01:15:21.381Z,12.53
2018-05-10T01:16:21.568Z,12.53
2018-05-10T01:17:21.754Z,12.44
2018-05-10T01:18:21.945Z,12.44
2018-05-10T01:19:22.132Z,12.50
2018-05-10T01:20:22.323Z,12.43
2018-05-10T01:21:22.508Z,12.33
2018-05-10T01:22:22.694Z,12.18
2018-05-10T01:23:22.884Z,12.17
2018-05-10T01:24:23.072Z,12.29
2018-05-10T01:25:23.260Z,12.43
2018-05-10T01:26:23.448Z,12.35
2018-05-10T01:27:23.636Z,12.44
2018-05-10T01:28:23.824Z,12.48
2018-05-10T01:29:24.012Z,12.48
2018-05-10T01:30:24.200Z,12.59
2018-05-10T01:31:24.388Z,12.51
2018-05-10T01:32:24.575Z,12.61
2018-05-10T01:33:24.765Z,12.65
2018-05-10T01:34:24.950Z,12.66
2018-05-10T01:35:25.138Z,12.53
2018-05-10T01:36:25.330Z,12.51
2018-05-10T01:37:25.513Z,12.48
2018-05-10T01:38:25.700Z,12.59
2018-05-10T01:39:25.887Z,12.68
2018-05-10T01:40:26.076Z,12.62
2018-05-10T01:41:26.264Z,12.69
2018-05-10T01:42:26.452Z,12.71
2018-05-10T01:43:26.640Z,12.54
2018-05-10T01:44:26.826Z,12.59
2018-05-10T01:45:27.015Z,12.51
2018-05-10T01:46:27.202Z,12.48
2018-05-10T01:47:27.390Z,12.51
2018-05-10T01:48:27.578Z,12.58
2018-05-10T01:49:27.765Z,12.53
2018-05-10T01:50:27.953Z,12.63
2018-05-10T01:51:28.160Z,12.65
2018-05-10T01:52:28.336Z,12.61
2018-05-10T01:53:28.523Z,12.79
2018-05-10T01:54:28.713Z,12.69
2018-05-10T01:55:28.900Z,12.80
2018-05-10T01:56:29.088Z,12.65
2018-05-10T01:57:29.276Z,12.73
2018-05-10T01:58:29.462Z,12.68
2018-05-10T01:59:29.651Z,12.68
2018-05-10T02:00:29.838Z,12.73
2018-05-10T02:01:30.024Z,12.65
2018-05-10T02:02:30.212Z,12.73
2018-05-10T02:03:30.400Z,12.68
2018-05-10T02:04:30.589Z,12.76
2018-05-10T02:05:30.776Z,12.73
2018-05-10T02:06:30.965Z,12.68
2018-05-10T02:07:31.152Z,12.68
2018-05-10T02:08:31.341Z,12.65
2018-05-10T02:09:31.529Z,12.65
2018-05-10T02:10:31.714Z,12.63
2018-05-10T02:11:31.905Z,12.66
2018-05-10T02:12:32.090Z,12.66
2018-05-10T02:13:32.279Z,12.63
2018-05-10T02:14:32.474Z,12.77
2018-05-10T02:15:32.653Z,12.81
2018-05-10T02:16:32.842Z,12.81
2018-05-10T02:17:33.030Z,12.73
2018-05-10T02:18:33.218Z,12.72
2018-05-10T02:19:33.407Z,12.73
2018-05-10T02:20:33.596Z,12.72
2018-05-10T02:21:33.781Z,12.79
2018-05-10T02:22:33.969Z,12.50
2018-05-10T02:23:34.157Z,12.68
2018-05-10T02:24:34.344Z,12.68
2018-05-10T02:25:34.533Z,12.68
2018-05-10T02:26:34.721Z,12.68
2018-05-10T02:27:34.908Z,12.81
2018-05-10T02:28:35.097Z,12.72
2018-05-10T02:29:35.288Z,12.66
2018-05-10T02:30:35.474Z,12.73
2018-05-10T02:31:35.661Z,12.77
2018-05-10T02:32:35.851Z,12.69
2018-05-10T02:33:36.035Z,12.80
2018-05-10T02:34:36.226Z,12.81
2018-05-10T02:35:36.414Z,12.84
2018-05-10T02:36:36.602Z,12.79
2018-05-10T02:37:36.792Z,12.87
2018-05-10T02:38:36.980Z,12.90
2018-05-10T02:39:37.168Z,12.83
2018-05-10T02:40:37.355Z,12.90
2018-05-10T02:41:37.543Z,12.86
2018-05-10T02:42:37.730Z,12.80
2018-05-10T02:43:37.917Z,12.77
2018-05-10T02:44:38.105Z,12.77
2018-05-10T02:45:38.298Z,12.68
2018-05-10T02:46:38.485Z,12.76
2018-05-10T02:47:38.670Z,12.61
2018-05-10T02:48:38.859Z,12.62
2018-05-10T02:49:39.044Z,12.65
2018-05-10T02:50:39.234Z,12.68
2018-05-10T02:51:39.420Z,12.71
2018-05-10T02:52:39.608Z,12.71
2018-05-10T02:53:39.796Z,12.83
2018-05-10T02:54:39.986Z,12.68
2018-05-10T02:55:40.172Z,12.72
2018-05-10T02:56:40.367Z,12.48
2018-05-10T02:57:40.551Z,12.59
2018-05-10T02:58:40.741Z,12.43
2018-05-10T02:59:40.934Z,12.35
2018-05-10T03:00:41.118Z,12.40
2018-05-10T03:01:41.303Z,12.28
2018-05-10T03:02:41.491Z,12.38
2018-05-10T03:03:41.682Z,12.32
2018-05-10T03:04:41.867Z,12.21
2018-05-10T03:05:42.054Z,12.22
2018-05-10T03:06:42.243Z,12.21
2018-05-10T03:07:42.429Z,12.36
2018-05-10T03:08:42.617Z,12.29
2018-05-10T03:09:42.806Z,12.40
2018-05-10T03:10:42.995Z,12.38
2018-05-10T03:11:43.183Z,12.35
2018-05-10T03:12:43.372Z,12.44
2018-05-10T03:13:43.559Z,12.47
2018-05-10T03:14:43.747Z,12.47
2018-05-10T03:15:43.933Z,12.61
2018-05-10T03:16:44.121Z,12.62
2018-05-10T03:17:44.310Z,12.65
2018-05-10T03:18:44.497Z,12.68
2018-05-10T03:19:44.685Z,12.77
2018-05-10T03:20:44.873Z,12.76
2018-05-10T03:21:45.062Z,12.66
2018-05-10T03:22:45.252Z,12.54
2018-05-10T03:23:45.437Z,12.54
2018-05-10T03:24:45.624Z,12.63
2018-05-10T03:25:45.814Z,12.65
2018-05-10T03:26:46.001Z,12.73
2018-05-10T03:27:46.189Z,12.79
2018-05-10T03:28:46.378Z,12.77
2018-05-10T03:29:46.566Z,12.77
2018-05-10T03:30:46.755Z,12.72
2018-05-10T03:31:46.943Z,12.77
2018-05-10T03:32:47.131Z,12.47
2018-05-10T03:33:47.318Z,12.53
2018-05-10T03:34:47.507Z,12.51
2018-05-10T03:35:47.694Z,12.44
2018-05-10T03:36:47.883Z,12.53
2018-05-10T03:37:48.069Z,12.51
2018-05-10T03:38:48.258Z,12.63
2018-05-10T03:39:48.446Z,12.61
2018-05-10T03:40:48.636Z,12.65
2018-05-10T03:41:48.823Z,12.76
2018-05-10T03:42:49.011Z,12.79
2018-05-10T03:43:49.201Z,12.71
2018-05-10T03:44:49.389Z,12.79
2018-05-10T03:45:49.576Z,12.81
2018-05-10T03:46:49.766Z,12.83
2018-05-10T03:47:49.955Z,12.80
2018-05-10T03:48:50.143Z,12.79
2018-05-10T03:49:50.330Z,12.86
2018-05-10T03:50:50.519Z,12.86
2018-05-10T03:51:50.708Z,12.83
2018-05-10T03:52:50.895Z,12.83
2018-05-10T03:53:51.084Z,12.84
2018-05-10T03:54:51.275Z,12.79
2018-05-10T03:55:51.461Z,12.77
2018-05-10T03:56:51.649Z,12.73
2018-05-10T03:57:51.837Z,12.83
2018-05-10T03:58:52.025Z,12.80
2018-05-10T03:59:52.213Z,12.83
2018-05-10T04:00:52.444Z,12.80
2018-05-10T04:01:52.590Z,12.88
2018-05-10T04:02:52.778Z,12.90
2018-05-10T04:03:52.965Z,12.88
2018-05-10T04:04:53.153Z,12.86
2018-05-10T04:05:53.344Z,12.88
2018-05-10T04:06:53.530Z,12.81
2018-05-10T04:07:53.721Z,12.83
2018-05-10T04:08:53.905Z,12.77
2018-05-10T04:09:54.093Z,12.87
2018-05-10T04:10:54.282Z,12.93
2018-05-10T04:11:54.471Z,12.86
2018-05-10T04:12:54.659Z,12.95
2018-05-10T04:13:54.848Z,13.02
2018-05-10T04:14:55.036Z,13.01
2018-05-10T04:15:55.223Z,12.84
2018-05-10T04:16:55.410Z,12.68
2018-05-10T04:17:55.600Z,12.48
2018-05-10T04:18:55.787Z,12.51
2018-05-10T04:19:55.976Z,12.47
2018-05-10T04:20:56.164Z,12.47
2018-05-10T04:21:56.352Z,12.32
2018-05-10T04:22:56.541Z,12.13
2018-05-10T04:23:56.729Z,12.15
2018-05-10T04:24:56.916Z,12.23
2018-05-10T04:25:57.105Z,12.14
2018-05-10T04:26:57.296Z,12.11
2018-05-10T04:27:57.533Z,12.17
2018-05-10T04:28:57.668Z,12.36
2018-05-10T04:29:57.858Z,12.46
2018-05-10T04:30:58.045Z,12.55
2018-05-10T04:31:58.236Z,12.66
2018-05-10T04:32:58.421Z,12.71
2018-05-10T04:33:58.609Z,12.69
2018-05-10T04:34:58.799Z,12.72
2018-05-10T04:35:58.988Z,12.65
2018-05-10T04:36:59.175Z,12.69
2018-05-10T04:37:59.361Z,12.54
2018-05-10T04:38:59.549Z,12.65
2018-05-10T04:39:59.741Z,12.69
2018-05-10T04:40:59.926Z,12.76
2018-05-10T04:42:00.113Z,12.84
2018-05-10T04:43:00.302Z,12.80
2018-05-10T04:44:00.490Z,12.99
2018-05-10T04:45:00.679Z,13.08
2018-05-10T04:46:00.867Z,13.20
2018-05-10T04:47:01.056Z,13.21
2018-05-10T04:48:01.244Z,13.20
2018-05-10T04:49:01.436Z,13.24
2018-05-10T04:50:01.623Z,13.19
2018-05-10T04:51:01.811Z,13.21
2018-05-10T04:52:02.002Z,13.20
2018-05-10T04:53:02.190Z,13.32
2018-05-10T04:54:02.375Z,13.30
2018-05-10T04:55:02.562Z,13.35
2018-05-10T04:56:02.754Z,13.35
2018-05-10T04:57:02.950Z,13.40
2018-05-10T04:58:03.164Z,13.36
2018-05-10T04:59:03.353Z,13.36
2018-05-10T05:00:03.542Z,13.40
2018-05-10T05:01:03.736Z,13.47
2018-05-10T05:02:03.919Z,13.49
2018-05-10T05:03:04.106Z,13.54
2018-05-10T05:04:04.292Z,13.39
2018-05-10T05:05:04.483Z,13.51
2018-05-10T05:06:04.675Z,13.47
2018-05-10T05:07:04.858Z,13.38
2018-05-10T05:08:05.047Z,13.49
2018-05-10T05:09:05.244Z,13.32
2018-05-10T05:10:05.426Z,13.21
2018-05-10T05:11:05.613Z,13.45
2018-05-10T05:12:05.801Z,13.55
2018-05-10T05:13:05.991Z,13.65
2018-05-10T05:14:06.178Z,13.64
2018-05-10T05:15:06.368Z,13.68
2018-05-10T05:16:06.555Z,13.71
2018-05-10T05:17:06.744Z,13.71
2018-05-10T05:18:06.933Z,13.76
2018-05-10T05:19:07.123Z,13.71
2018-05-10T05:20:07.313Z,13.78
2018-05-10T05:21:07.502Z,14.01
2018-05-10T05:22:07.691Z,14.22
2018-05-10T05:23:07.878Z,14.26
2018-05-10T05:24:08.068Z,14.38
2018-05-10T05:25:08.259Z,14.51
2018-05-10T05:26:08.446Z,14.48
2018-05-10T05:27:08.635Z,14.22
2018-05-10T05:28:08.825Z,14.23
2018-05-10T05:29:09.017Z,13.93
2018-05-10T05:30:09.206Z,13.79
2018-05-10T05:31:09.394Z,13.72
2018-05-10T05:32:09.583Z,13.73
2018-05-10T05:33:09.774Z,13.94
2018-05-10T05:34:09.963Z,13.78
2018-05-10T05:35:10.155Z,14.01
2018-05-10T05:36:10.346Z,14.22
2018-05-10T05:37:10.531Z,14.22
2018-05-10T05:38:10.721Z,14.45
2018-05-10T05:39:10.911Z,14.49
2018-05-10T05:40:11.101Z,14.58
2018-05-10T05:41:11.313Z,14.83
2018-05-10T05:42:11.478Z,15.01
2018-05-10T05:43:11.747Z,15.30
2018-05-10T05:44:11.860Z,15.52
2018-05-10T05:45:12.051Z,15.48
2018-05-10T05:46:12.240Z,15.01
2018-05-10T05:47:12.430Z,14.73
2018-05-10T05:48:12.621Z,14.37
2018-05-10T05:49:12.811Z,14.41
2018-05-10T05:50:13.000Z,14.41
2018-05-10T05:51:13.223Z,14.44
2018-05-10T05:52:13.384Z,14.33
2018-05-10T05:53:13.572Z,14.27
2018-05-10T05:54:13.766Z,14.28
2018-05-10T05:55:13.953Z,14.28
2018-05-10T05:56:14.143Z,13.90
2018-05-10T05:57:14.332Z,13.76
2018-05-10T05:58:14.525Z,13.63
2018-05-10T05:59:14.715Z,13.63
2018-05-10T06:00:14.907Z,13.55
2018-05-10T06:01:15.096Z,13.61
2018-05-10T06:02:15.288Z,13.57
2018-05-10T06:03:15.478Z,13.57
2018-05-10T06:04:15.668Z,13.61
2018-05-10T06:05:15.858Z,13.76
2018-05-10T06:06:16.050Z,13.86
2018-05-10T06:07:16.240Z,14.19
2018-05-10T06:08:16.433Z,14.26
2018-05-10T06:09:16.623Z,14.36
2018-05-10T06:10:16.814Z,14.40
2018-05-10T06:11:17.004Z,14.22
2018-05-10T06:12:17.196Z,14.44
2018-05-10T06:13:17.393Z,14.82
2018-05-10T06:14:17.579Z,15.07
2018-05-10T06:15:17.770Z,15.45
2018-05-10T06:16:17.961Z,15.63
2018-05-10T06:17:18.151Z,15.96
2018-05-10T06:18:18.342Z,16.17
2018-05-10T06:19:18.535Z,16.25
2018-05-10T06:20:18.725Z,16.32
2018-05-10T06:21:18.917Z,16.58
2018-05-10T06:22:19.108Z,16.39
2018-05-10T06:23:19.301Z,16.03
2018-05-10T06:24:19.500Z,15.66
2018-05-10T06:25:19.684Z,15.32
2018-05-10T06:26:19.877Z,15.14
2018-05-10T06:27:20.069Z,15.10
2018-05-10T06:28:20.260Z,14.79
2018-05-10T06:29:20.454Z,14.73
2018-05-10T06:30:20.644Z,14.82
2018-05-10T06:31:20.836Z,14.73
2018-05-10T06:32:21.032Z,14.93
2018-05-10T06:33:21.217Z,15.01
2018-05-10T06:34:21.410Z,15.01
2018-05-10T06:35:21.599Z,14.96
2018-05-10T06:36:21.797Z,14.85
2018-05-10T06:37:21.984Z,15.05
2018-05-10T06:38:22.175Z,15.32
2018-05-10T06:39:22.367Z,15.66
2018-05-10T06:40:22.558Z,16.00
2018-05-10T06:41:22.753Z,16.39
2018-05-10T06:42:22.944Z,16.52
2018-05-10T06:43:23.141Z,16.58
2018-05-10T06:44:23.328Z,16.62
2018-05-10T06:45:23.521Z,16.76
2018-05-10T06:46:23.714Z,16.74
2018-05-10T06:47:23.906Z,16.65
2018-05-10T06:48:24.100Z,16.79
2018-05-10T06:49:24.291Z,16.95
2018-05-10T06:50:24.483Z,17.13
2018-05-10T06:51:24.681Z,17.19
2018-05-10T06:52:24.870Z,17.04
2018-05-10T06:53:25.063Z,17.28
2018-05-10T06:54:25.255Z,17.50
2018-05-10T06:55:25.451Z,17.76
2018-05-10T06:56:25.643Z,17.62
2018-05-10T06:57:25.844Z,17.81
2018-05-10T06:58:26.031Z,18.24
2018-05-10T06:59:26.223Z,18.56
2018-05-10T07:00:26.422Z,18.41
2018-05-10T07:01:26.613Z,18.58
2018-05-10T07:02:26.808Z,18.60
2018-05-10T07:03:27.069Z,18.78
2018-05-10T07:04:27.197Z,18.91
2018-05-10T07:05:27.391Z,18.91
2018-05-10T07:06:27.592Z,19.09
2018-05-10T07:07:27.782Z,19.35
2018-05-10T07:08:27.979Z,19.78
2018-05-10T07:09:28.328Z,19.78
2018-05-10T07:10:28.369Z,19.45
2018-05-10T07:11:28.564Z,19.87
2018-05-10T07:12:28.761Z,19.23
2018-05-10T07:13:28.956Z,18.93
2018-05-10T07:14:29.219Z,19.01
2018-05-10T07:15:29.352Z,19.39
2018-05-10T07:16:29.549Z,19.90
2018-05-10T07:17:29.746Z,20.29
2018-05-10T07:18:29.943Z,20.55
2018-05-10T07:19:30.140Z,20.85
2018-05-10T07:20:30.340Z,21.11
2018-05-10T07:21:30.541Z,21.11
2018-05-10T07:22:30.736Z,21.59
2018-05-10T07:23:30.936Z,22.15
2018-05-10T07:24:31.133Z,22.67
2018-05-10T07:25:31.332Z,22.33
2018-05-10T07:26:31.535Z,22.68
2018-05-10T07:27:31.735Z,22.06
2018-05-10T07:28:31.932Z,22.16
2018-05-10T07:29:32.132Z,22.16
2018-05-10T07:30:32.333Z,22.01
2018-05-10T07:31:32.533Z,22.62
2018-05-10T07:32:32.737Z,22.46
2018-05-10T07:33:32.938Z,21.20
2018-05-10T07:34:33.140Z,20.29
2018-05-10T07:35:33.345Z,19.67
2018-05-10T07:36:33.543Z,19.12
2018-05-10T07:37:33.746Z,18.88
2018-05-10T07:38:33.947Z,18.45
2018-05-10T07:39:34.154Z,18.57
2018-05-10T07:40:34.352Z,18.33
2018-05-10T07:41:34.555Z,18.27
2018-05-10T07:42:34.759Z,18.39
2018-05-10T07:43:34.961Z,18.28
2018-05-10T07:44:35.170Z,18.27
2018-05-10T07:45:35.369Z,18.56
2018-05-10T07:46:35.567Z,18.74
2018-05-10T07:47:35.770Z,19.01
2018-05-10T07:48:35.975Z,19.37
2018-05-10T07:49:36.179Z,19.54
2018-05-10T07:50:36.381Z,20.26
2018-05-10T07:51:36.586Z,20.86
2018-05-10T07:52:36.788Z,20.56
2018-05-10T07:53:36.991Z,20.63
2018-05-10T07:54:37.195Z,20.30
2018-05-10T07:55:37.397Z,19.93
2018-05-10T07:56:37.602Z,19.78
2018-05-10T07:57:37.803Z,19.47
2018-05-10T07:58:38.008Z,19.13
2018-05-10T07:59:38.212Z,19.12
2018-05-10T08:00:38.416Z,19.77
2018-05-10T08:01:38.620Z,20.70
2018-05-10T08:02:38.825Z,21.51
2018-05-10T08:03:39.028Z,22.03
2018-05-10T08:04:39.232Z,22.76
2018-05-10T08:05:39.435Z,22.98
2018-05-10T08:06:39.639Z,23.01
2018-05-10T08:07:39.844Z,23.63
2018-05-10T08:08:40.050Z,24.01
2018-05-10T08:09:40.256Z,24.26
2018-05-10T08:10:40.460Z,24.66
2018-05-10T08:11:40.664Z,24.26
2018-05-10T08:12:40.869Z,24.70
2018-05-10T08:13:41.072Z,25.21
2018-05-10T08:14:41.278Z,25.12
2018-05-10T08:15:41.484Z,23.97
2018-05-10T08:16:41.689Z,24.10
2018-05-10T08:17:41.894Z,24.55
2018-05-10T08:18:42.102Z,25.01
2018-05-10T08:19:42.307Z,25.33
2018-05-10T08:20:42.513Z,25.77
2018-05-10T08:21:42.719Z,25.26
2018-05-10T08:22:42.923Z,24.71
2018-05-10T08:23:43.130Z,23.71
2018-05-10T08:24:43.333Z,24.23
2018-05-10T08:25:43.540Z,24.68
2018-05-10T08:26:43.746Z,23.44
2018-05-10T08:27:43.953Z,22.77
2018-05-10T08:28:44.157Z,22.98
2018-05-10T08:29:44.364Z,23.08
2018-05-10T08:30:44.568Z,23.08
2018-05-10T08:31:44.773Z,23.37
2018-05-10T08:32:44.979Z,23.67
2018-05-10T08:33:45.183Z,23.66
2018-05-10T08:34:45.388Z,23.84
2018-05-10T08:35:45.592Z,24.04
2018-05-10T08:36:45.830Z,24.34
2018-05-10T08:37:46.001Z,24.40
2018-05-10T08:38:46.205Z,24.48
2018-05-10T08:39:46.411Z,24.26
2018-05-10T08:40:46.615Z,24.41
2018-05-10T08:41:46.820Z,24.29
2018-05-10T08:42:47.023Z,24.07
2018-05-10T08:43:47.227Z,23.81
2018-05-10T08:44:47.429Z,23.73
2018-05-10T08:45:47.632Z,23.56
2018-05-10T08:46:47.838Z,23.59
2018-05-10T08:47:48.080Z,23.69
2018-05-10T08:48:48.239Z,24.19
2018-05-10T08:49:48.441Z,24.31
2018-05-10T08:50:48.643Z,24.41
2018-05-10T08:51:48.871Z,24.63
2018-05-10T08:52:49.047Z,24.89
2018-05-10T08:53:49.250Z,25.36
2018-05-10T08:54:49.453Z,25.34
2018-05-10T08:55:49.657Z,25.63
2018-05-10T08:56:49.860Z,25.93
2018-05-10T08:57:50.064Z,26.15
2018-05-10T08:58:50.266Z,26.33
2018-05-10T08:59:50.507Z,26.61
2018-05-10T09:00:50.672Z,26.63
2018-05-10T09:01:50.875Z,26.15
2018-05-10T09:02:51.079Z,25.98
2018-05-10T09:03:51.282Z,26.21
2018-05-10T09:04:51.484Z,26.41
2018-05-10T09:05:51.688Z,25.68
2018-05-10T09:06:51.894Z,25.77
2018-05-10T09:07:52.097Z,25.86
2018-05-10T09:08:52.301Z,26.03
2018-05-10T09:09:52.506Z,26.12
2018-05-10T09:10:52.713Z,26.28
2018-05-10T09:11:52.914Z,26.48
2018-05-10T09:12:53.118Z,26.71
2018-05-10T09:13:53.322Z,26.73
2018-05-10T09:14:53.527Z,26.67
2018-05-10T09:15:53.729Z,26.57
2018-05-10T09:16:53.942Z,26.38
2018-05-10T09:17:54.135Z,26.56
2018-05-10T09:18:54.341Z,26.49
2018-05-10T09:19:54.544Z,25.67
2018-05-10T09:20:54.748Z,25.09
2018-05-10T09:21:54.953Z,25.31
2018-05-10T09:22:55.159Z,25.59
2018-05-10T09:23:55.363Z,25.64
2018-05-10T09:24:55.564Z,25.92
2018-05-10T09:25:55.782Z,25.21
2018-05-10T09:26:55.976Z,24.31
2018-05-10T09:27:56.173Z,24.45
2018-05-10T09:28:56.376Z,24.01
2018-05-10T09:29:56.579Z,23.94
2018-05-10T09:30:56.785Z,24.16
2018-05-10T09:31:56.987Z,24.60
2018-05-10T09:32:57.190Z,25.09
2018-05-10T09:33:57.395Z,25.70
2018-05-10T09:34:57.594Z,26.11
2018-05-10T09:35:57.797Z,26.11
2018-05-10T09:36:58.001Z,25.74
2018-05-10T09:37:58.205Z,25.78
2018-05-10T09:38:58.409Z,25.95
2018-05-10T09:39:58.610Z,25.12
2018-05-10T09:40:58.813Z,25.09
2018-05-10T09:41:59.018Z,25.66
2018-05-10T09:42:59.222Z,25.90
2018-05-10T09:43:59.421Z,26.15
2018-05-10T09:44:59.732Z,26.58
2018-05-10T09:45:59.828Z,26.71
2018-05-10T09:47:00.034Z,26.89
2018-05-10T09:48:00.232Z,26.83
2018-05-10T09:49:00.434Z,26.93
2018-05-10T09:50:00.640Z,27.15
2018-05-10T09:51:00.842Z,27.45
2018-05-10T09:52:01.042Z,27.58
2018-05-10T09:53:01.246Z,27.68
2018-05-10T09:54:01.447Z,27.64
2018-05-10T09:55:01.652Z,27.58
2018-05-10T09:56:01.853Z,27.50
2018-05-10T09:57:02.059Z,27.41
2018-05-10T09:58:02.263Z,27.44
2018-05-10T09:59:02.461Z,27.40
2018-05-10T10:00:02.664Z,27.42
2018-05-10T10:01:02.864Z,27.40
2018-05-10T10:02:03.077Z,27.27
2018-05-10T10:03:03.271Z,27.12
2018-05-10T10:04:03.533Z,27.10
2018-05-10T10:05:03.689Z,26.79
2018-05-10T10:06:03.889Z,26.30
2018-05-10T10:07:04.090Z,26.48
2018-05-10T10:08:04.291Z,26.04
2018-05-10T10:09:04.494Z,25.92
2018-05-10T10:10:04.696Z,25.27
2018-05-10T10:11:04.896Z,25.11
2018-05-10T10:12:05.100Z,25.58
2018-05-10T10:13:05.306Z,25.90
2018-05-10T10:14:05.506Z,26.03
2018-05-10T10:15:05.706Z,26.52
2018-05-10T10:16:05.907Z,26.43
2018-05-10T10:17:06.108Z,25.48
2018-05-10T10:18:06.309Z,24.56
2018-05-10T10:19:06.510Z,23.78
2018-05-10T10:20:06.711Z,23.71
2018-05-10T10:21:06.911Z,24.08
2018-05-10T10:22:07.111Z,24.65
2018-05-10T10:23:07.311Z,25.19
2018-05-10T10:24:07.511Z,25.64
2018-05-10T10:25:07.746Z,25.85
2018-05-10T10:26:07.913Z,26.20
2018-05-10T10:27:08.111Z,26.12
2018-05-10T10:28:08.312Z,26.11
2018-05-10T10:29:08.513Z,25.90
2018-05-10T10:30:08.711Z,25.89
2018-05-10T10:31:08.917Z,26.00
2018-05-10T10:32:09.113Z,26.27
2018-05-10T10:33:09.314Z,26.34
2018-05-10T10:34:09.513Z,26.49
2018-05-10T10:35:09.717Z,26.61
2018-05-10T10:36:09.913Z,26.83
2018-05-10T10:37:10.112Z,26.89
2018-05-10T10:38:10.341Z,26.88
2018-05-10T10:39:10.513Z,26.93
2018-05-10T10:40:10.737Z,26.89
2018-05-10T10:41:10.915Z,26.43
2018-05-10T10:42:11.113Z,26.12
2018-05-10T10:43:11.315Z,26.12
2018-05-10T10:44:11.518Z,26.21
2018-05-10T10:45:11.718Z,26.04
2018-05-10T10:46:11.921Z,25.86
2018-05-10T10:47:12.123Z,25.77
2018-05-10T10:48:12.325Z,26.03
2018-05-10T10:49:12.528Z,26.26
2018-05-10T10:50:12.726Z,26.34
2018-05-10T10:51:12.928Z,26.31
2018-05-10T10:52:13.129Z,26.16
2018-05-10T10:53:13.368Z,26.26
2018-05-10T10:54:13.537Z,25.83
2018-05-10T10:55:13.728Z,26.03
2018-05-10T10:56:13.928Z,26.51
2018-05-10T10:57:14.131Z,26.83
2018-05-10T10:58:14.328Z,26.73
2018-05-10T10:59:14.528Z,25.98
2018-05-10T11:00:14.726Z,26.33
2018-05-10T11:01:14.925Z,26.68
2018-05-10T11:02:15.127Z,26.90
2018-05-10T11:03:15.327Z,26.52
2018-05-10T11:04:15.527Z,26.43
2018-05-10T11:05:15.726Z,26.28
2018-05-10T11:06:15.927Z,25.75
2018-05-10T11:07:16.125Z,25.75
2018-05-10T11:08:16.325Z,25.83
2018-05-10T11:09:16.575Z,25.45
2018-05-10T11:10:16.724Z,24.56
2018-05-10T11:11:16.922Z,24.41
2018-05-10T11:12:17.123Z,24.40
2018-05-10T11:13:17.320Z,24.68
2018-05-10T11:14:17.520Z,24.97
2018-05-10T11:15:17.719Z,25.34
2018-05-10T11:16:17.916Z,24.86
2018-05-10T11:17:18.116Z,24.37
2018-05-10T11:18:18.311Z,24.29
2018-05-10T11:19:18.510Z,24.40
2018-05-10T11:20:18.711Z,24.29
2018-05-10T11:21:18.909Z,24.31
2018-05-10T11:22:19.109Z,24.89
2018-05-10T11:23:19.305Z,25.11
2018-05-10T11:24:19.504Z,25.21
2018-05-10T11:25:19.702Z,25.21
2018-05-10T11:26:19.904Z,25.23
2018-05-10T11:27:20.115Z,24.84
2018-05-10T11:28:20.304Z,25.15
2018-05-10T11:29:20.500Z,25.19
2018-05-10T11:30:20.699Z,25.34
2018-05-10T11:31:20.898Z,25.16
2018-05-10T11:32:21.097Z,25.37
2018-05-10T11:33:21.351Z,25.77
2018-05-10T11:34:21.493Z,26.26
2018-05-10T11:35:21.692Z,26.78
2018-05-10T11:36:21.891Z,26.73
2018-05-10T11:37:22.091Z,26.15
2018-05-10T11:38:22.291Z,25.85
2018-05-10T11:39:22.489Z,25.52
2018-05-10T11:40:22.688Z,25.88
2018-05-10T11:41:22.977Z,26.23
2018-05-10T11:42:23.090Z,26.26
2018-05-10T11:43:23.287Z,26.36
2018-05-10T11:44:23.548Z,25.74
2018-05-10T11:45:23.688Z,25.31
2018-05-10T11:46:23.887Z,25.30
2018-05-10T11:47:24.086Z,24.85
2018-05-10T11:48:24.282Z,24.85
2018-05-10T11:49:24.481Z,24.66
2018-05-10T11:50:24.704Z,24.81
2018-05-10T11:51:24.883Z,24.60
2018-05-10T11:52:25.082Z,25.18
2018-05-10T11:53:25.281Z,25.11
2018-05-10T11:54:25.510Z,25.28
2018-05-10T11:55:25.680Z,24.65
2018-05-10T11:56:25.874Z,24.59
2018-05-10T11:57:26.141Z,24.93
2018-05-10T11:58:26.273Z,25.33
2018-05-10T11:59:26.473Z,25.37
2018-05-10T12:00:26.672Z,25.56
2018-05-10T12:01:26.869Z,25.77
2018-05-10T12:02:27.111Z,25.93
2018-05-10T12:03:27.268Z,25.95
2018-05-10T12:04:27.471Z,25.61
2018-05-10T12:05:27.666Z,25.93
2018-05-10T12:06:27.866Z,26.31
2018-05-10T12:07:28.065Z,26.61
2018-05-10T12:08:28.261Z,26.83
2018-05-10T12:09:28.459Z,26.79
2018-05-10T12:10:28.656Z,26.75
2018-05-10T12:11:28.857Z,26.90
2018-05-10T12:12:29.058Z,27.03
2018-05-10T12:13:29.256Z,26.41
2018-05-10T12:14:29.466Z,25.64
2018-05-10T12:15:29.656Z,25.85
2018-05-10T12:16:29.853Z,25.71
2018-05-10T12:17:30.053Z,25.46
2018-05-10T12:18:30.251Z,25.41
2018-05-10T12:19:30.449Z,24.84
2018-05-10T12:20:30.734Z,24.93
2018-05-10T12:21:30.850Z,25.01
2018-05-10T12:22:31.054Z,24.84
2018-05-10T12:23:31.248Z,24.89
2018-05-10T12:24:31.447Z,24.43
2018-05-10T12:25:31.701Z,24.07
2018-05-10T12:26:31.843Z,24.21
2018-05-10T12:27:32.042Z,24.40
2018-05-10T12:28:32.238Z,24.26
2018-05-10T12:29:32.436Z,23.96
2018-05-10T12:30:32.696Z,23.71
2018-05-10T12:31:32.833Z,23.76
2018-05-10T12:32:33.032Z,23.23
2018-05-10T12:33:33.229Z,22.93
2018-05-10T12:34:33.426Z,22.04
2018-05-10T12:35:33.626Z,21.96
2018-05-10T12:36:33.827Z,21.30
2018-05-10T12:37:34.021Z,21.18
2018-05-10T12:38:34.220Z,21.08
2018-05-10T12:39:34.416Z,21.03
2018-05-10T12:40:34.613Z,20.92
2018-05-10T12:41:34.868Z,20.74
2018-05-10T12:42:35.009Z,20.60
2018-05-10T12:43:35.210Z,20.50
2018-05-10T12:44:35.402Z,20.34
2018-05-10T12:45:35.598Z,20.58
2018-05-10T12:46:35.792Z,20.60
2018-05-10T12:47:35.988Z,20.53
2018-05-10T12:48:36.240Z,20.14
2018-05-10T12:49:36.379Z,20.12
2018-05-10T12:50:36.574Z,20.14
2018-05-10T12:51:36.770Z,19.96
2018-05-10T12:52:36.964Z,19.97
2018-05-10T12:53:37.161Z,19.74
2018-05-10T12:54:37.354Z,19.86